createdAt,value
2023-05-19T02:27:00.565Z,9.21
2023-05-19T02:29:28.041Z,9.34
2023-05-19T02:31:55.850Z,9.40
2023-05-19T02:34:23.257Z,9.52
2023-05-19T02:36:50.727Z,9.49
2023-05-19T02:39:18.093Z,9.42
2023-05-19T02:41:45.587Z,9.37
2023-05-19T02:44:12.872Z,9.19
2023-05-19T02:46:40.356Z,9.33
2023-05-19T02:49:07.856Z,9.46
2023-05-19T02:51:35.389Z,9.32
2023-05-19T02:54:02.653Z,9.20
2023-05-19T02:56:30.026Z,9.31
2023-05-19T02:58:58.495Z,9.29
2023-05-19T03:01:26.538Z,9.42
2023-05-19T03:03:54.087Z,9.50
2023-05-19T03:06:23.723Z,9.59
2023-05-19T03:08:51.553Z,9.51
2023-05-19T03:11:19.084Z,9.51
2023-05-19T03:13:46.529Z,9.49
2023-05-19T03:16:14.149Z,9.64
2023-05-19T03:18:42.238Z,9.62
2023-05-19T03:21:09.471Z,9.39
2023-05-19T03:23:36.797Z,9.51
2023-05-19T03:26:04.554Z,9.62
2023-05-19T03:28:31.963Z,9.71
2023-05-19T03:30:59.235Z,9.66
2023-05-19T03:33:30.565Z,9.70
2023-05-19T07:31:58.474Z,14.96
2023-05-19T07:34:26.019Z,15.17
2023-05-19T07:36:53.304Z,15.12
2023-05-19T07:39:21.081Z,14.56
2023-05-19T07:41:52.841Z,14.51
2023-05-19T07:44:20.154Z,14.54
2023-05-19T07:46:47.739Z,14.34
2023-05-19T07:49:15.112Z,14.11
2023-05-19T07:51:42.479Z,14.18
2023-05-19T07:54:10.113Z,14.13
2023-05-19T07:56:37.484Z,13.96
2023-05-19T07:59:05.098Z,13.86
2023-05-19T08:01:32.557Z,13.67
2023-05-19T08:04:00.344Z,13.78
2023-05-19T08:06:28.495Z,13.67
2023-05-19T08:08:56.055Z,13.62
2023-05-19T08:11:23.329Z,13.81
2023-05-19T08:13:51.022Z,13.64
2023-05-19T08:16:18.653Z,13.63
2023-05-19T08:18:46.211Z,13.74
2023-05-19T08:21:13.712Z,13.94
2023-05-19T08:23:41.034Z,13.68
2023-05-19T08:26:08.297Z,13.60
2023-05-19T08:28:35.826Z,13.45
2023-05-19T08:31:03.428Z,13.50
2023-05-19T08:33:30.694Z,13.48
2023-05-19T08:35:58.225Z,13.47
2023-05-19T08:38:26.706Z,13.45
2023-05-19T08:40:55.042Z,13.56
2023-05-19T17:04:35.878Z,14.50
2023-05-19T17:07:03.436Z,14.64
2023-05-19T17:09:31.412Z,14.50
2023-05-19T17:11:58.977Z,14.37
2023-05-19T17:14:26.256Z,14.46
2023-05-19T17:16:53.591Z,14.54
2023-05-19T17:19:20.925Z,14.51
2023-05-19T17:21:48.612Z,14.53
2023-05-19T17:24:16.411Z,14.44
2023-05-19T17:26:44.378Z,14.46
2023-05-19T17:29:12.211Z,14.43
2023-05-19T17:31:39.492Z,14.20
2023-05-19T17:34:07.123Z,14.09
2023-05-19T17:36:34.525Z,13.99
2023-05-19T17:39:02.093Z,13.70
2023-05-19T17:41:29.511Z,13.61
2023-05-19T17:43:56.991Z,13.64
2023-05-19T17:46:24.315Z,13.41
2023-05-19T17:48:51.669Z,13.40
2023-05-19T17:51:19.297Z,13.51
2023-05-19T17:53:47.207Z,13.47
2023-05-19T17:56:15.023Z,13.47
2023-05-19T17:58:44.233Z,13.50
2023-05-19T18:01:11.775Z,13.35
2023-05-19T18:03:39.625Z,13.34
2023-05-19T18:06:07.767Z,13.22
2023-05-19T18:08:37.038Z,13.33
2023-05-19T18:11:05.931Z,13.18
2023-05-19T18:13:33.829Z,13.40
2023-05-19T18:16:01.861Z,13.28
2023-05-19T18:23:00.268Z,13.03
2023-05-19T18:25:27.725Z,13.14
2023-05-19T18:27:56.067Z,13.25
